Time;durP1;ratioP1;P1;durP2;ratioP2;P2;SDS_P1;SDS_P2;PMS_P1;PMS_P2;Temp;Humidity;BMP_temperature;BMP_pressure;BME280_temperature;BME280_humidity;BME280_pressure;Samples;Min_cycle;Max_cycle;Signal;HPM_P1;HPM_P2
2023/09/08 00:01:23;;;;;;;14.15;6.05;;;;;15.20;96731.00;;;;8203266;29;20235;-72
2023/09/08 00:05:28;;;;;;;5.82;5.13;;;;;15.60;96726.00;;;;8200780;28;20605;-71
2023/09/08 00:09:36;;;;;;;8.68;5.53;;;;;15.90;96720.00;;;;8201881;29;20243;-73
2023/09/08 00:13:42;;;;;;;9.73;4.82;;;;;16.20;96720.00;;;;8202894;29;20195;-72
2023/09/08 00:17:47;;;;;;;6.97;5.45;;;;;16.50;96709.00;;;;8202194;28;20212;-72
2023/09/08 00:21:54;;;;;;;7.95;5.15;;;;;16.70;96713.00;;;;8201521;29;20192;-72
2023/09/08 00:25:58;;;;;;;6.40;5.13;;;;;16.80;96712.00;;;;8202480;28;20246;-72
2023/09/08 00:30:04;;;;;;;7.25;4.80;;;;;16.90;96712.00;;;;8201113;29;22182;-71
2023/09/08 00:34:07;;;;;;;7.00;4.63;;;;;17.10;96713.00;;;;8202590;29;20199;-72
2023/09/08 00:38:14;;;;;;;8.35;5.28;;;;;17.20;96710.00;;;;8201472;29;20202;-71
2023/09/08 00:42:18;;;;;;;6.57;5.20;;;;;17.40;96707.00;;;;8202579;29;20574;-71
2023/09/08 00:46:23;;;;;;;5.45;4.60;;;;;17.40;96701.00;;;;8200479;29;20204;-72
2023/09/08 00:50:29;;;;;;;6.35;4.82;;;;;17.50;96703.00;;;;8202411;29;20224;-71
2023/09/08 00:54:33;;;;;;;6.75;5.03;;;;;17.60;96701.00;;;;8202489;29;20192;-73
2023/09/08 00:58:39;;;;;;;6.38;4.80;;;;;17.60;96703.00;;;;8200941;29;20223;-72
2023/09/08 01:02:45;;;;;;;13.35;5.03;;;;;17.60;96706.00;;;;8203532;28;20319;-72
2023/09/08 01:06:49;;;;;;;9.88;5.15;;;;;17.60;96702.00;;;;8207077;28;20216;-72
2023/09/08 01:10:55;;;;;;;4.70;4.13;;;;;17.60;96701.00;;;;8207832;29;20255;-72
2023/09/08 01:14:59;;;;;;;5.93;4.53;;;;;17.60;96694.00;;;;8207515;29;20254;-72
2023/09/08 01:19:12;;;;;;;8.57;4.93;;;;;17.50;96704.00;;;;8208170;29;20204;-72
2023/09/08 01:23:25;;;;;;;5.32;4.82;;;;;17.50;96709.00;;;;8208465;29;20279;-72
2023/09/08 01:27:33;;;;;;;8.23;5.13;;;;;17.50;96709.00;;;;8206873;29;20292;-72
2023/09/08 01:31:37;;;;;;;9.10;5.07;;;;;17.50;96709.00;;;;8207433;29;20315;-72
2023/09/08 01:35:43;;;;;;;7.32;4.90;;;;;17.50;96699.00;;;;8207547;29;20283;-72
2023/09/08 01:39:47;;;;;;;7.82;4.88;;;;;17.60;96701.00;;;;8206361;29;20235;-72
2023/09/08 01:43:54;;;;;;;7.80;5.05;;;;;17.60;96700.00;;;;8205402;29;20246;-71
2023/09/08 01:48:03;;;;;;;8.05;5.13;;;;;17.60;96690.00;;;;8206504;29;20227;-73
2023/09/08 01:52:22;;;;;;;8.45;5.20;;;;;17.50;96696.00;;;;8203053;29;20220;-71
2023/09/08 01:56:27;;;;;;;6.85;4.60;;;;;17.40;96694.00;;;;8206550;29;20197;-73
2023/09/08 02:00:33;;;;;;;5.38;4.70;;;;;17.10;96699.00;;;;8190923;29;20212;-73
2023/09/08 02:04:39;;;;;;;7.35;5.15;;;;;16.60;96685.00;;;;8206071;28;20700;-73
2023/09/08 02:08:43;;;;;;;7.70;5.35;;;;;16.10;96679.00;;;;8207008;29;20533;-73
2023/09/08 02:12:48;;;;;;;8.82;5.38;;;;;15.60;96678.00;;;;8206007;29;20637;-73
2023/09/08 02:16:52;;;;;;;7.80;5.40;;;;;15.20;96685.00;;;;8188752;29;20196;-73
2023/09/08 02:21:00;;;;;;;7.22;5.70;;;;;15.10;96673.00;;;;8205873;29;20293;-72
2023/09/08 02:25:05;;;;;;;9.07;5.45;;;;;15.00;96677.00;;;;8206304;29;20597;-72
2023/09/08 02:29:08;;;;;;;7.30;5.50;;;;;14.90;96677.00;;;;8205457;29;20200;-72
2023/09/08 02:33:13;;;;;;;6.78;5.75;;;;;14.60;96667.00;;;;8206253;28;20614;-72
2023/09/08 02:37:18;;;;;;;12.50;6.10;;;;;14.50;96670.00;;;;8188032;29;20203;-72
2023/09/08 02:41:26;;;;;;;10.43;6.03;;;;;14.40;96676.00;;;;8205382;29;20554;-72
2023/09/08 02:45:32;;;;;;;9.63;6.30;;;;;14.40;96670.00;;;;8205055;29;20240;-72
2023/09/08 02:49:40;;;;;;;9.55;6.00;;;;;14.50;96670.00;;;;8204926;29;20529;-72
2023/09/08 02:53:45;;;;;;;10.60;6.22;;;;;14.60;96664.00;;;;8204754;29;20326;-72
2023/09/08 02:57:55;;;;;;;8.15;5.68;;;;;14.80;96675.00;;;;8186884;29;20233;-72
2023/09/08 03:01:58;;;;;;;7.57;5.97;;;;;14.80;96679.00;;;;8240854;23;20402;-72
2023/09/08 03:06:04;;;;;;;6.18;5.35;;;;;14.70;96672.00;;;;8243802;28;20208;-72
2023/09/08 03:10:09;;;;;;;7.72;5.93;;;;;14.60;96676.00;;;;8241203;28;20242;-72
2023/09/08 03:14:16;;;;;;;10.45;5.97;;;;;14.80;96669.00;;;;8230630;28;20305;-72
2023/09/08 03:18:21;;;;;;;8.68;6.20;;;;;15.10;96666.00;;;;8250287;28;20686;-72
2023/09/08 03:22:31;;;;;;;11.00;6.07;;;;;14.90;96675.00;;;;8248360;28;20249;-72
2023/09/08 03:26:34;;;;;;;9.20;5.78;;;;;14.50;96679.00;;;;8242731;28;20203;-72
2023/09/08 03:30:38;;;;;;;8.55;5.78;;;;;14.10;96680.00;;;;8244461;28;20241;-72
2023/09/08 03:34:41;;;;;;;11.57;5.95;;;;;13.80;96685.00;;;;8247436;28;20244;-72
2023/09/08 03:38:46;;;;;;;8.93;5.88;;;;;13.50;96678.00;;;;8242675;28;20203;-72
2023/09/08 03:42:49;;;;;;;9.65;6.45;;;;;13.30;96677.00;;;;8247064;28;20247;-72
2023/09/08 03:46:56;;;;;;;8.70;6.35;;;;;13.10;96673.00;;;;8242402;28;20699;-72
2023/09/08 03:50:59;;;;;;;12.30;6.63;;;;;12.90;96669.00;;;;8250098;28;20202;-72
2023/09/08 03:55:06;;;;;;;13.35;6.93;;;;;12.80;96664.00;;;;8233717;28;20730;-72
2023/09/08 03:59:10;;;;;;;9.40;6.18;;;;;12.70;96664.00;;;;8245984;28;20288;-73
2023/09/08 04:03:13;;;;;;;14.40;6.40;;;;;12.60;96666.00;;;;8236565;28;20233;-73
2023/09/08 04:07:17;;;;;;;9.80;7.15;;;;;12.60;96658.00;;;;8251527;28;20615;-74
2023/09/08 04:11:21;;;;;;;12.55;6.68;;;;;12.50;96669.00;;;;8230374;28;20261;-73
2023/09/08 04:15:25;;;;;;;10.60;6.45;;;;;12.40;96672.00;;;;8237830;28;20206;-71
2023/09/08 04:19:30;;;;;;;11.10;6.63;;;;;12.30;96676.00;;;;8241672;28;20644;-74
2023/09/08 04:23:34;;;;;;;10.27;7.18;;;;;12.20;96670.00;;;;8248281;28;20300;-76
2023/09/08 04:27:41;;;;;;;13.43;7.13;;;;;12.20;96676.00;;;;8250475;28;20283;-72
2023/09/08 04:31:44;;;;;;;11.07;7.07;;;;;12.10;96678.00;;;;8249775;28;20321;-71
2023/09/08 04:35:48;;;;;;;10.60;6.25;;;;;12.00;96681.00;;;;8242399;28;20221;-72
2023/09/08 04:39:51;;;;;;;10.65;6.60;;;;;12.00;96674.00;;;;8221925;28;20199;-72
2023/09/08 04:43:57;;;;;;;11.48;7.38;;;;;12.00;96678.00;;;;8255448;28;20197;-72
2023/09/08 04:48:05;;;;;;;10.90;6.45;;;;;11.90;96687.00;;;;8252724;28;20206;-73
2023/09/08 04:52:08;;;;;;;11.30;7.22;;;;;11.80;96686.00;;;;8259895;28;20286;-69
2023/09/08 04:56:13;;;;;;;12.00;7.07;;;;;11.80;96688.00;;;;8252124;28;20213;-72
2023/09/08 05:00:18;;;;;;;10.60;7.07;;;;;11.80;96691.00;;;;8252674;28;20211;-71
2023/09/08 05:04:23;;;;;;;13.82;8.23;;;;;11.80;96692.00;;;;8252089;28;20277;-67
2023/09/08 05:08:28;;;;;;;11.02;7.05;;;;;11.90;96696.00;;;;8238472;28;20214;-72
2023/09/08 05:12:32;;;;;;;12.90;7.10;;;;;12.10;96701.00;;;;8241260;28;20223;-75
2023/09/08 05:16:46;;;;;;;11.43;7.93;;;;;12.30;96699.00;;;;8245073;28;20209;-69
2023/09/08 05:20:49;;;;;;;16.70;8.05;;;;;12.80;96701.00;;;;8243724;28;20209;-71
2023/09/08 05:24:53;;;;;;;13.77;8.45;;;;;13.20;96710.00;;;;8251949;28;20224;-71
2023/09/08 05:29:25;;;;;;;8.52;6.35;;;;;13.40;96718.00;;;;8246590;28;20289;-80
2023/09/08 05:33:29;;;;;;;10.35;7.50;;;;;13.40;96708.00;;;;8244621;28;20241;-73
2023/09/08 05:37:33;;;;;;;11.52;6.90;;;;;13.40;96711.00;;;;8242822;28;20203;-72
2023/09/08 05:41:36;;;;;;;12.68;7.60;;;;;13.50;96713.00;;;;8248941;28;20656;-70
2023/09/08 05:45:39;;;;;;;11.75;7.38;;;;;13.70;96721.00;;;;8254078;28;20229;-74
2023/09/08 05:49:48;;;;;;;9.88;7.15;;;;;14.00;96718.00;;;;8251536;28;20201;-72
2023/09/08 05:53:51;;;;;;;9.00;6.80;;;;;14.50;96721.00;;;;8250389;28;20227;-72
2023/09/08 05:57:55;;;;;;;14.18;6.75;;;;;15.10;96717.00;;;;8248486;28;20248;-67
2023/09/08 06:01:58;;;;;;;15.48;6.53;;;;;15.50;96720.00;;;;8248663;28;20326;-69
2023/09/08 06:06:03;;;;;;;9.23;6.70;;;;;15.90;96713.00;;;;8251505;28;20202;-68
2023/09/08 06:10:08;;;;;;;11.43;6.72;;;;;16.20;96717.00;;;;8247402;28;20205;-67
2023/09/08 06:14:11;;;;;;;10.60;6.28;;;;;16.50;96721.00;;;;8248656;28;20341;-69
2023/09/08 06:18:14;;;;;;;10.00;6.32;;;;;16.70;96723.00;;;;8252858;28;20237;-68
2023/09/08 06:22:19;;;;;;;12.43;7.03;;;;;16.90;96724.00;;;;8247398;28;20882;-68
2023/09/08 06:26:23;;;;;;;15.10;6.68;;;;;17.00;96724.00;;;;8247246;28;20199;-68
2023/09/08 06:30:26;;;;;;;11.63;6.63;;;;;17.20;96717.00;;;;8245727;28;20210;-68
2023/09/08 06:34:30;;;;;;;11.00;6.53;;;;;17.40;96721.00;;;;8252300;28;20238;-71
2023/09/08 06:38:35;;;;;;;7.68;6.00;;;;;17.50;96732.00;;;;8246878;28;20206;-68
2023/09/08 06:42:39;;;;;;;11.02;6.50;;;;;17.60;96735.00;;;;8227028;28;20203;-70
2023/09/08 06:46:44;;;;;;;14.13;6.35;;;;;17.70;96734.00;;;;8227440;28;21142;-68
2023/09/08 06:50:47;;;;;;;10.05;6.13;;;;;17.90;96739.00;;;;8248906;28;20202;-68
2023/09/08 06:54:52;;;;;;;9.45;5.07;;;;;18.00;96735.00;;;;8245372;28;20321;-69
2023/09/08 06:58:57;;;;;;;7.20;5.35;;;;;18.10;96733.00;;;;8249971;28;20249;-68
2023/09/08 07:03:01;;;;;;;13.40;6.72;;;;;18.30;96728.00;;;;8243654;28;20281;-69
2023/09/08 07:07:13;;;;;;;12.35;6.20;;;;;18.40;96728.00;;;;8247193;28;20260;-69
2023/09/08 07:11:18;;;;;;;9.30;5.47;;;;;18.60;96739.00;;;;8241074;28;20199;-68
2023/09/08 07:15:21;;;;;;;13.30;6.13;;;;;18.80;96742.00;;;;8242300;28;20235;-70
2023/09/08 07:19:26;;;;;;;8.35;5.43;;;;;18.90;96741.00;;;;8242884;28;20201;-69
2023/09/08 07:23:30;;;;;;;17.80;5.80;;;;;19.10;96746.00;;;;8235039;28;20203;-69
2023/09/08 07:27:36;;;;;;;8.43;6.10;;;;;19.40;96732.00;;;;8246338;28;20260;-68
2023/09/08 07:31:40;;;;;;;7.95;5.70;;;;;19.70;96745.00;;;;8248164;28;20234;-69
2023/09/08 07:35:45;;;;;;;8.00;5.82;;;;;20.00;96731.00;;;;8243957;28;20226;-70
2023/09/08 07:39:49;;;;;;;9.90;5.25;;;;;20.20;96742.00;;;;8242968;28;20329;-69
2023/09/08 07:43:56;;;;;;;12.98;5.82;;;;;20.60;96730.00;;;;8250918;28;20857;-68
2023/09/08 07:47:59;;;;;;;9.07;5.60;;;;;21.00;96747.00;;;;8223734;28;20621;-70
2023/09/08 07:52:04;;;;;;;4.57;4.03;;;;;21.60;96736.00;;;;8240199;28;20203;-69
2023/09/08 07:56:09;;;;;;;8.77;4.70;;;;;22.10;96735.00;;;;8240279;28;20313;-69
2023/09/08 08:00:17;;;;;;;8.60;4.78;;;;;22.70;96732.00;;;;8238686;28;20866;-69
2023/09/08 08:04:20;;;;;;;6.40;4.40;;;;;23.30;96732.00;;;;8242608;28;20314;-70
2023/09/08 08:08:23;;;;;;;6.22;5.00;;;;;23.90;96740.00;;;;8238936;28;20199;-70
2023/09/08 08:12:28;;;;;;;6.03;4.85;;;;;24.30;96742.00;;;;8239548;28;20198;-68
2023/09/08 08:16:32;;;;;;;5.72;4.70;;;;;25.00;96745.00;;;;8244645;28;20233;-70
2023/09/08 08:20:35;;;;;;;8.38;4.80;;;;;25.70;96744.00;;;;8234812;28;20876;-69
2023/09/08 08:24:38;;;;;;;5.97;4.55;;;;;26.30;96743.00;;;;8236925;28;21150;-68
2023/09/08 08:28:43;;;;;;;5.70;4.35;;;;;27.00;96752.00;;;;8247168;28;20205;-69
2023/09/08 08:32:51;;;;;;;9.80;4.43;;;;;27.40;96742.00;;;;8243010;28;20202;-70
2023/09/08 08:36:55;;;;;;;6.55;4.05;;;;;27.60;96742.00;;;;8237050;28;20203;-68
2023/09/08 08:41:06;;;;;;;5.90;4.20;;;;;27.60;96741.00;;;;8242899;28;20205;-69
2023/09/08 08:45:10;;;;;;;7.57;4.55;;;;;27.70;96745.00;;;;8243754;28;20314;-70
2023/09/08 08:49:17;;;;;;;7.53;4.25;;;;;27.80;96742.00;;;;8240070;28;20925;-68
2023/09/08 08:53:23;;;;;;;10.25;4.45;;;;;28.20;96752.00;;;;8243578;28;20808;-68
2023/09/08 08:57:30;;;;;;;8.75;4.97;;;;;28.50;96748.00;;;;8241106;28;20305;-70
2023/09/08 09:01:37;;;;;;;4.32;3.95;;;;;28.90;96746.00;;;;8224700;28;20226;-70
2023/09/08 09:05:42;;;;;;;8.90;4.80;;;;;29.20;96747.00;;;;8242522;28;20234;-70
2023/09/08 09:09:50;;;;;;;4.45;4.05;;;;;29.60;96748.00;;;;8245688;28;20931;-69
2023/09/08 09:13:56;;;;;;;7.07;4.28;;;;;29.60;96744.00;;;;8243577;28;20230;-69
2023/09/08 09:18:08;;;;;;;5.03;4.50;;;;;29.90;96742.00;;;;8241760;28;20629;-71
2023/09/08 09:22:15;;;;;;;8.63;4.43;;;;;30.10;96748.00;;;;8243171;28;20617;-69
2023/09/08 09:26:27;;;;;;;7.15;4.35;;;;;30.20;96745.00;;;;8250984;28;20213;-69
2023/09/08 09:30:51;;;;;;;6.32;4.10;;;;;30.20;96743.00;;;;8226716;28;20298;-68
2023/09/08 09:34:56;;;;;;;4.72;3.92;;;;;30.30;96744.00;;;;8243805;28;20948;-68
2023/09/08 09:39:03;;;;;;;5.00;3.90;;;;;30.30;96747.00;;;;8246378;28;20190;-70
2023/09/08 09:43:08;;;;;;;8.88;4.57;;;;;30.30;96745.00;;;;8246596;28;20203;-69
2023/09/08 09:47:13;;;;;;;7.15;4.35;;;;;30.50;96742.00;;;;8247828;28;20298;-69
2023/09/08 09:51:19;;;;;;;9.13;4.43;;;;;30.70;96734.00;;;;8245303;28;20206;-69
2023/09/08 09:55:26;;;;;;;4.97;4.28;;;;;30.90;96735.00;;;;8248193;28;20226;-71
2023/09/08 09:59:30;;;;;;;8.10;4.25;;;;;30.80;96740.00;;;;8247093;28;20202;-71
2023/09/08 10:03:36;;;;;;;6.95;3.97;;;;;31.10;96736.00;;;;8246481;28;20951;-70
2023/09/08 10:07:40;;;;;;;5.80;4.22;;;;;31.00;96742.00;;;;8246667;28;20226;-71
2023/09/08 10:11:49;;;;;;;7.07;4.32;;;;;31.10;96736.00;;;;8247127;28;21056;-71
2023/09/08 10:15:58;;;;;;;5.65;3.88;;;;;31.00;96739.00;;;;8238151;28;20223;-69
2023/09/08 10:20:10;;;;;;;4.70;4.00;;;;;31.30;96735.00;;;;8225463;28;20279;-71
2023/09/08 10:24:22;;;;;;;4.70;4.07;;;;;31.50;96741.00;;;;8241070;28;20208;-70
2023/09/08 10:28:29;;;;;;;8.57;4.10;;;;;31.70;96741.00;;;;8249519;28;20592;-70
2023/09/08 10:32:35;;;;;;;5.82;4.25;;;;;31.70;96736.00;;;;8246960;28;20214;-69
2023/09/08 10:36:40;;;;;;;6.43;3.80;;;;;31.70;96740.00;;;;8243992;28;20241;-71
2023/09/08 10:40:44;;;;;;;7.30;4.22;;;;;31.70;96739.00;;;;8244391;28;20217;-69
2023/09/08 10:45:04;;;;;;;4.97;4.35;;;;;31.30;96733.00;;;;8241555;28;20290;-68
2023/09/08 10:49:10;;;;;;;3.97;3.58;;;;;30.90;96729.00;;;;8243826;28;20234;-69
2023/09/08 10:53:15;;;;;;;6.85;4.28;;;;;30.70;96728.00;;;;8246100;28;20206;-71
2023/09/08 10:57:22;;;;;;;4.90;4.07;;;;;30.30;96721.00;;;;8245644;28;20226;-71
2023/09/08 11:01:30;;;;;;;6.78;4.25;;;;;30.10;96724.00;;;;8242400;28;20202;-69
2023/09/08 11:05:44;;;;;;;8.10;4.18;;;;;29.90;96715.00;;;;8246260;28;20206;-70
2023/09/08 11:09:47;;;;;;;8.00;3.97;;;;;29.60;96724.00;;;;8246533;28;20194;-70
2023/09/08 11:13:52;;;;;;;10.45;3.92;;;;;29.50;96714.00;;;;8228115;28;20199;-71
2023/09/08 11:17:58;;;;;;;6.72;4.07;;;;;30.00;96712.00;;;;8241574;28;20203;-69
2023/09/08 11:22:02;;;;;;;7.88;4.32;;;;;30.30;96711.00;;;;8242341;28;20247;-69
2023/09/08 11:26:08;;;;;;;6.82;4.22;;;;;30.30;96712.00;;;;8245949;28;20202;-69
2023/09/08 11:30:15;;;;;;;6.57;4.25;;;;;30.00;96716.00;;;;8246847;28;20226;-68
2023/09/08 11:34:25;;;;;;;6.85;4.32;;;;;30.10;96719.00;;;;8249047;28;20284;-70
2023/09/08 11:38:29;;;;;;;5.88;4.15;;;;;29.90;96714.00;;;;8245166;28;20206;-70
2023/09/08 11:42:34;;;;;;;8.10;3.75;;;;;29.90;96708.00;;;;8243226;28;20207;-70
2023/09/08 11:46:41;;;;;;;6.38;4.15;;;;;30.00;96709.00;;;;8246536;28;20700;-70
2023/09/08 11:50:45;;;;;;;4.50;4.10;;;;;30.10;96708.00;;;;8241104;28;20191;-71
2023/09/08 11:54:49;;;;;;;6.60;4.57;;;;;30.00;96709.00;;;;8242944;28;20261;-71
2023/09/08 11:59:09;;;;;;;5.22;4.25;;;;;29.80;96711.00;;;;8240104;28;20202;-74
2023/09/08 12:03:16;;;;;;;5.50;3.72;;;;;29.60;96716.00;;;;8239721;28;20265;-72
2023/09/08 12:07:21;;;;;;;7.97;4.22;;;;;29.60;96711.00;;;;8250016;28;20210;-72
2023/09/08 12:11:25;;;;;;;5.65;4.35;;;;;29.50;96698.00;;;;8231578;28;20231;-75
2023/09/08 12:15:33;;;;;;;4.63;4.20;;;;;29.40;96704.00;;;;8237004;28;20325;-69
2023/09/08 12:19:42;;;;;;;4.22;3.83;;;;;29.30;96702.00;;;;8238267;28;20242;-69
2023/09/08 12:23:56;;;;;;;8.27;4.15;;;;;29.30;96696.00;;;;8241490;28;20221;-69
2023/09/08 12:28:00;;;;;;;7.50;4.28;;;;;29.30;96699.00;;;;8245465;28;20740;-69
2023/09/08 12:32:03;;;;;;;7.10;3.95;;;;;29.30;96704.00;;;;8243991;28;20290;-66
2023/09/08 12:36:14;;;;;;;5.40;4.38;;;;;29.30;96695.00;;;;8245196;28;20242;-67
2023/09/08 12:40:22;;;;;;;5.65;4.15;;;;;29.20;96702.00;;;;8238897;28;20201;-67
2023/09/08 12:44:27;;;;;;;5.15;4.15;;;;;29.10;96703.00;;;;8230559;28;20199;-68
2023/09/08 12:48:35;;;;;;;6.03;4.28;;;;;29.10;96704.00;;;;8235840;28;20276;-68
2023/09/08 12:52:39;;;;;;;4.70;3.85;;;;;28.90;96693.00;;;;8239078;28;20199;-68
2023/09/08 12:56:43;;;;;;;5.93;4.25;;;;;28.80;96685.00;;;;8235013;28;20948;-67
2023/09/08 13:00:47;;;;;;;4.88;3.90;;;;;28.80;96684.00;;;;8245844;28;20638;-67
2023/09/08 13:04:50;;;;;;;6.15;4.15;;;;;28.90;96692.00;;;;8251284;28;20222;-68
2023/09/08 13:08:58;;;;;;;11.60;4.38;;;;;28.90;96686.00;;;;8252930;28;20234;-67
2023/09/08 13:13:04;;;;;;;5.13;3.60;;;;;28.80;96676.00;;;;8251829;28;20231;-67
2023/09/08 13:17:07;;;;;;;4.95;4.35;;;;;28.80;96678.00;;;;8253026;28;20237;-67
2023/09/08 13:21:10;;;;;;;8.13;3.85;;;;;29.00;96674.00;;;;8252507;28;20207;-67
2023/09/08 13:25:13;;;;;;;5.68;3.97;;;;;29.20;96668.00;;;;8248754;28;20265;-66
2023/09/08 13:29:21;;;;;;;5.78;3.97;;;;;29.20;96667.00;;;;8252700;28;20608;-66
2023/09/08 13:33:24;;;;;;;5.15;4.10;;;;;29.20;96660.00;;;;8251890;28;20329;-67
2023/09/08 13:37:30;;;;;;;4.25;3.80;;;;;29.30;96663.00;;;;8251271;28;20218;-66
2023/09/08 13:41:49;;;;;;;7.35;4.38;;;;;29.40;96655.00;;;;8249320;28;20957;-67
2023/09/08 13:45:56;;;;;;;7.00;4.18;;;;;29.60;96652.00;;;;8245600;28;20706;-66
2023/09/08 13:50:00;;;;;;;7.78;3.97;;;;;30.00;96650.00;;;;8247183;28;20621;-67
2023/09/08 13:54:11;;;;;;;4.75;4.05;;;;;30.70;96651.00;;;;8251052;28;20195;-67
2023/09/08 13:58:15;;;;;;;4.00;3.60;;;;;31.30;96647.00;;;;8250885;28;20306;-66
2023/09/08 14:02:26;;;;;;;4.32;3.85;;;;;31.60;96643.00;;;;8246570;28;20766;-66
2023/09/08 14:06:32;;;;;;;4.90;3.88;;;;;31.80;96645.00;;;;8250819;28;20291;-67
2023/09/08 14:10:41;;;;;;;5.57;4.05;;;;;32.00;96639.00;;;;8252056;28;20203;-66
2023/09/08 14:14:49;;;;;;;4.13;3.72;;;;;32.20;96634.00;;;;8250421;28;20202;-66
2023/09/08 14:19:00;;;;;;;4.47;4.05;;;;;32.50;96629.00;;;;8252967;28;20286;-67
2023/09/08 14:23:07;;;;;;;4.10;3.70;;;;;32.60;96635.00;;;;8249583;28;20301;-66
2023/09/08 14:27:11;;;;;;;6.18;3.55;;;;;32.70;96628.00;;;;8249933;28;20948;-67
2023/09/08 14:31:15;;;;;;;5.68;4.20;;;;;32.80;96626.00;;;;8253680;28;20684;-67
2023/09/08 14:35:20;;;;;;;5.20;4.07;;;;;32.70;96628.00;;;;8244960;28;20226;-67
2023/09/08 14:39:23;;;;;;;7.00;4.07;;;;;32.50;96627.00;;;;8251265;28;20195;-67
2023/09/08 14:43:27;;;;;;;4.18;3.78;;;;;32.30;96626.00;;;;8244100;28;20636;-67
2023/09/08 14:47:30;;;;;;;4.55;4.00;;;;;32.30;96626.00;;;;8251002;28;20266;-66
2023/09/08 14:51:37;;;;;;;5.10;3.63;;;;;32.50;96625.00;;;;8251661;28;20286;-66
2023/09/08 14:55:40;;;;;;;5.35;4.55;;;;;32.30;96623.00;;;;8248315;28;20248;-67
2023/09/08 14:59:54;;;;;;;4.13;3.78;;;;;32.40;96625.00;;;;8252838;28;20211;-67
2023/09/08 15:03:59;;;;;;;9.35;4.22;;;;;32.40;96621.00;;;;8250464;28;20223;-66
2023/09/08 15:08:04;;;;;;;5.55;4.20;;;;;32.30;96620.00;;;;8249964;28;20661;-66
2023/09/08 15:12:12;;;;;;;7.28;4.10;;;;;32.20;96626.00;;;;8252945;28;20207;-67
2023/09/08 15:16:21;;;;;;;4.30;3.90;;;;;32.30;96626.00;;;;8250028;28;20329;-69
2023/09/08 15:20:25;;;;;;;6.45;4.32;;;;;32.20;96623.00;;;;8251414;28;20242;-67
2023/09/08 15:24:30;;;;;;;5.93;3.85;;;;;32.10;96615.00;;;;8251760;28;20631;-68
2023/09/08 15:28:35;;;;;;;7.28;4.50;;;;;32.10;96620.00;;;;8248991;28;20242;-68
2023/09/08 15:32:38;;;;;;;4.63;4.15;;;;;32.20;96626.00;;;;8248482;28;20194;-68
2023/09/08 15:36:47;;;;;;;5.03;3.92;;;;;32.30;96621.00;;;;8243539;28;20322;-67
2023/09/08 15:41:20;;;;;;;5.60;4.28;;;;;32.20;96623.00;;;;8246159;28;20195;-66
2023/09/08 15:45:23;;;;;;;7.20;4.32;;;;;32.20;96623.00;;;;8249161;28;20209;-67
2023/09/08 15:49:27;;;;;;;5.03;4.30;;;;;32.30;96622.00;;;;8248388;28;20206;-68
2023/09/08 15:53:38;;;;;;;5.60;4.70;;;;;32.40;96617.00;;;;8249835;28;20203;-68
2023/09/08 15:57:45;;;;;;;4.90;4.40;;;;;32.50;96623.00;;;;8249356;28;20232;-67
2023/09/08 16:01:51;;;;;;;5.68;4.47;;;;;32.60;96616.00;;;;8240513;28;20262;-66
2023/09/08 16:05:55;;;;;;;4.45;4.00;;;;;32.80;96612.00;;;;8249859;28;20211;-66
2023/09/08 16:09:59;;;;;;;6.78;4.07;;;;;32.80;96619.00;;;;8244443;28;20713;-70
2023/09/08 16:14:04;;;;;;;5.18;4.38;;;;;32.90;96613.00;;;;8232903;28;20202;-68
2023/09/08 16:18:10;;;;;;;6.13;4.50;;;;;33.00;96616.00;;;;8248489;28;20254;-66
2023/09/08 16:22:21;;;;;;;7.60;4.53;;;;;32.90;96615.00;;;;8252922;28;20318;-67
2023/09/08 16:26:24;;;;;;;4.60;4.05;;;;;33.00;96616.00;;;;8248697;28;20207;-68
2023/09/08 16:30:31;;;;;;;6.45;4.40;;;;;32.90;96613.00;;;;8246252;28;20199;-67
2023/09/08 16:34:34;;;;;;;8.32;4.28;;;;;32.70;96622.00;;;;8247549;28;20883;-67
2023/09/08 16:38:37;;;;;;;7.07;5.63;;;;;32.40;96616.00;;;;8247416;28;20230;-67
2023/09/08 16:42:43;;;;;;;8.43;6.30;;;;;31.80;96615.00;;;;8242715;28;20641;-64
2023/09/08 16:46:51;;;;;;;5.45;4.20;;;;;31.10;96611.00;;;;8247565;28;20213;-64
2023/09/08 16:50:54;;;;;;;8.18;4.35;;;;;30.40;96610.00;;;;8247309;28;20203;-64
2023/09/08 16:54:57;;;;;;;4.45;4.05;;;;;29.80;96615.00;;;;8249010;28;20285;-64
2023/09/08 16:59:00;;;;;;;9.68;4.80;;;;;29.30;96608.00;;;;8245347;28;20222;-64
2023/09/08 17:03:05;;;;;;;5.15;4.55;;;;;28.80;96617.00;;;;8241876;28;20893;-65
2023/09/08 17:07:09;;;;;;;6.07;4.38;;;;;28.40;96610.00;;;;8246545;28;20207;-65
2023/09/08 17:11:12;;;;;;;6.57;4.72;;;;;27.90;96611.00;;;;8243958;28;20207;-64
2023/09/08 17:15:15;;;;;;;9.85;5.35;;;;;27.40;96609.00;;;;8233536;28;21012;-64
2023/09/08 17:19:19;;;;;;;7.18;4.40;;;;;26.80;96610.00;;;;8247232;28;20673;-65
2023/09/08 17:23:25;;;;;;;6.60;5.20;;;;;26.20;96617.00;;;;8238778;28;20218;-65
2023/09/08 17:27:28;;;;;;;9.77;4.78;;;;;25.60;96616.00;;;;8245376;28;20246;-65
2023/09/08 17:31:31;;;;;;;6.28;4.50;;;;;24.90;96610.00;;;;8240578;28;20211;-65
2023/09/08 17:35:37;;;;;;;8.75;4.72;;;;;24.20;96607.00;;;;8243631;28;20273;-66
2023/09/08 17:39:41;;;;;;;9.60;5.10;;;;;23.70;96611.00;;;;8246651;28;20234;-65
2023/09/08 17:43:46;;;;;;;9.80;5.40;;;;;23.20;96614.00;;;;8243198;28;20199;-65
2023/09/08 17:47:52;;;;;;;7.90;5.50;;;;;22.70;96612.00;;;;8245619;28;20203;-65
2023/09/08 17:51:56;;;;;;;14.43;5.28;;;;;22.40;96610.00;;;;8243225;28;20207;-65
2023/09/08 17:56:00;;;;;;;8.18;4.95;;;;;22.00;96617.00;;;;8240803;28;20195;-65
2023/09/08 18:00:06;;;;;;;8.98;5.30;;;;;21.70;96621.00;;;;8227489;28;20227;-65
2023/09/08 18:04:09;;;;;;;6.47;4.72;;;;;21.40;96618.00;;;;8238347;28;20330;-66
2023/09/08 18:08:15;;;;;;;8.55;5.00;;;;;21.20;96616.00;;;;8245953;28;20213;-65
2023/09/08 18:12:20;;;;;;;11.48;5.57;;;;;21.00;96620.00;;;;8247619;28;20235;-64
2023/09/08 18:16:26;;;;;;;6.43;5.13;;;;;20.90;96613.00;;;;8244165;28;20317;-65
2023/09/08 18:20:32;;;;;;;8.77;5.15;;;;;20.70;96609.00;;;;8242457;28;20219;-65
2023/09/08 18:24:37;;;;;;;9.48;5.82;;;;;20.60;96618.00;;;;8244979;28;20214;-65
2023/09/08 18:28:40;;;;;;;7.95;4.78;;;;;20.50;96615.00;;;;8239960;28;20199;-65
2023/09/08 18:32:44;;;;;;;6.22;5.10;;;;;20.30;96620.00;;;;8246156;28;20203;-64
2023/09/08 18:36:47;;;;;;;11.48;5.57;;;;;20.20;96616.00;;;;8242165;28;20220;-65
2023/09/08 18:40:53;;;;;;;9.77;5.57;;;;;20.10;96615.00;;;;8248598;28;20242;-65
2023/09/08 18:44:56;;;;;;;6.22;5.13;;;;;20.00;96613.00;;;;8244592;28;20246;-63
2023/09/08 18:49:01;;;;;;;7.90;5.28;;;;;19.80;96608.00;;;;8247824;28;20249;-65
2023/09/08 18:53:06;;;;;;;6.90;5.22;;;;;19.60;96618.00;;;;8250511;28;20841;-66
2023/09/08 18:57:12;;;;;;;6.18;5.03;;;;;19.60;96620.00;;;;8244469;28;20968;-66
2023/09/08 19:01:16;;;;;;;10.30;5.18;;;;;19.50;96623.00;;;;8246267;28;20195;-64
2023/09/08 19:05:24;;;;;;;9.25;5.57;;;;;19.40;96627.00;;;;8248040;28;21074;-65
2023/09/08 19:09:30;;;;;;;7.65;5.20;;;;;19.20;96627.00;;;;8248017;28;20653;-65
2023/09/08 19:13:36;;;;;;;8.00;4.93;;;;;19.00;96620.00;;;;8250789;28;20253;-64
2023/09/08 19:17:39;;;;;;;8.05;5.35;;;;;18.90;96630.00;;;;8240995;28;21024;-66
2023/09/08 19:21:43;;;;;;;10.18;5.28;;;;;18.60;96624.00;;;;8249259;28;20381;-64
2023/09/08 19:25:49;;;;;;;6.43;5.10;;;;;18.50;96627.00;;;;8248188;28;20695;-65
2023/09/08 19:29:58;;;;;;;11.20;6.10;;;;;18.40;96625.00;;;;8248493;28;20231;-65
2023/09/08 19:34:02;;;;;;;7.60;5.32;;;;;18.20;96624.00;;;;8248808;28;20202;-65
2023/09/08 19:38:06;;;;;;;8.52;5.30;;;;;18.00;96620.00;;;;8247395;28;20724;-65
2023/09/08 19:42:09;;;;;;;8.10;5.75;;;;;17.90;96621.00;;;;8243280;28;20293;-66
2023/09/08 19:46:14;;;;;;;9.15;5.13;;;;;17.80;96623.00;;;;8247077;28;20228;-65
2023/09/08 19:50:17;;;;;;;7.70;5.25;;;;;17.70;96617.00;;;;8248429;28;20206;-65
2023/09/08 19:54:20;;;;;;;11.05;5.30;;;;;17.60;96620.00;;;;8233715;28;20555;-65
2023/09/08 19:58:23;;;;;;;10.85;6.60;;;;;17.60;96611.00;;;;8240054;28;20694;-65
2023/09/08 20:02:28;;;;;;;11.73;6.20;;;;;17.50;96609.00;;;;8239833;28;20261;-65
2023/09/08 20:06:32;;;;;;;9.65;5.47;;;;;17.40;96616.00;;;;8236041;28;20199;-65
2023/09/08 20:10:38;;;;;;;8.63;5.40;;;;;17.30;96607.00;;;;8222395;28;21142;-65
2023/09/08 20:14:41;;;;;;;10.90;5.97;;;;;17.30;96612.00;;;;8242591;28;20198;-65
2023/09/08 20:18:46;;;;;;;7.68;5.88;;;;;17.20;96613.00;;;;8248657;28;20417;-65
2023/09/08 20:22:54;;;;;;;15.75;6.00;;;;;17.10;96610.00;;;;8237312;28;20668;-66
2023/09/08 20:26:58;;;;;;;10.20;6.93;;;;;17.00;96611.00;;;;8240047;28;20205;-65